Time;durP1;ratioP1;P1;durP2;ratioP2;P2;SDS_P1;SDS_P2;PMS_P1;PMS_P2;Temp;Humidity;BMP_temperature;BMP_pressure;BME280_temperature;BME280_humidity;BME280_pressure;Samples;Min_cycle;Max_cycle;Signal;HPM_P1;HPM_P2
2022/06/24 00:01:59;;;;;;;10.07;9.10;;;18.80;99.90;20.50;96664.00;;;;5069410;28;20204;-67
2022/06/24 00:04:53;;;;;;;12.00;7.87;;;19.00;99.90;20.50;96669.00;;;;5070902;28;20746;-67
2022/06/24 00:07:46;;;;;;;8.93;7.90;;;18.80;99.90;20.50;96669.00;;;;5070404;28;20207;-67
2022/06/24 00:10:37;;;;;;;15.60;8.90;;;18.70;99.90;20.50;96665.00;;;;5069465;28;20215;-67
2022/06/24 00:13:39;;;;;;;9.10;8.27;;;18.90;99.90;20.50;96662.00;;;;5063657;28;20200;-67
2022/06/24 00:16:28;;;;;;;12.57;7.93;;;18.90;99.90;20.40;96663.00;;;;5069573;28;20577;-67
2022/06/24 00:19:17;;;;;;;8.17;7.40;;;18.80;99.90;20.20;96660.00;;;;5070203;28;20222;-67
2022/06/24 00:22:08;;;;;;;10.30;8.20;;;18.90;99.90;20.10;96661.00;;;;5069292;28;20212;-67
2022/06/24 00:25:12;;;;;;;9.77;7.80;;;18.80;99.90;20.10;96663.00;;;;5070704;28;20599;-67
2022/06/24 00:28:03;;;;;;;11.17;8.53;;;18.80;99.90;20.10;96666.00;;;;5069305;28;20574;-67
2022/06/24 00:30:55;;;;;;;9.17;8.33;;;18.60;99.90;20.20;96666.00;;;;5068935;28;20196;-66
2022/06/24 00:33:46;;;;;;;9.80;8.60;;;18.80;99.90;20.30;96660.00;;;;5070400;28;20218;-66
2022/06/24 00:36:35;;;;;;;11.23;8.40;;;18.70;99.90;20.30;96668.00;;;;5069199;28;20578;-67
2022/06/24 00:39:33;;;;;;;10.77;8.20;;;18.60;99.90;20.30;96666.00;;;;5059564;28;20211;-67
2022/06/24 00:42:24;;;;;;;10.13;9.07;;;18.70;99.90;20.20;96657.00;;;;5070263;28;20199;-67
2022/06/24 00:45:21;;;;;;;9.73;8.73;;;18.60;99.90;20.10;96652.00;;;;5070080;28;20252;-67
2022/06/24 00:48:16;;;;;;;10.27;8.57;;;18.80;99.90;20.10;96653.00;;;;5068817;28;20745;-67
2022/06/24 00:51:07;;;;;;;7.70;7.00;;;18.70;99.90;20.10;96654.00;;;;5070007;28;20208;-67
2022/06/24 00:53:57;;;;;;;9.43;8.07;;;18.70;99.90;20.20;96643.00;;;;5069575;28;20203;-67
2022/06/24 00:56:46;;;;;;;8.87;7.97;;;18.60;99.90;20.20;96643.00;;;;5069355;28;20215;-67
2022/06/24 00:59:36;;;;;;;12.10;8.93;;;18.60;99.90;20.20;96648.00;;;;5069142;28;20207;-67
2022/06/24 01:02:25;;;;;;;14.60;8.50;;;18.50;99.90;20.10;96648.00;;;;5068419;28;20227;-67
2022/06/24 01:05:18;;;;;;;13.43;7.90;;;18.60;99.90;19.90;96643.00;;;;5058597;28;20228;-67
2022/06/24 01:08:10;;;;;;;9.37;8.47;;;18.50;99.90;19.80;96633.00;;;;5069597;28;20203;-67
2022/06/24 01:10:59;;;;;;;9.87;8.37;;;18.50;99.90;19.80;96638.00;;;;5068759;28;20200;-67
2022/06/24 01:13:47;;;;;;;8.77;7.97;;;18.60;99.90;20.00;96645.00;;;;5069588;28;20572;-67
2022/06/24 01:16:37;;;;;;;10.90;8.63;;;18.60;99.90;20.20;96635.00;;;;5068514;28;20204;-67
2022/06/24 01:19:28;;;;;;;9.93;8.37;;;18.60;99.90;20.20;96624.00;;;;5067680;28;20212;-67
2022/06/24 01:22:22;;;;;;;9.93;8.93;;;18.50;99.90;20.20;96625.00;;;;5069016;28;20215;-67
2022/06/24 01:25:11;;;;;;;9.67;8.67;;;18.70;99.90;20.30;96629.00;;;;5069619;28;20731;-67
2022/06/24 01:28:01;;;;;;;9.27;8.37;;;18.60;99.90;20.30;96630.00;;;;5069139;28;20575;-67
2022/06/24 01:30:49;;;;;;;10.10;9.17;;;18.60;99.90;20.30;96627.00;;;;5069462;28;20208;-67
2022/06/24 01:33:38;;;;;;;9.13;8.23;;;18.80;99.90;20.20;96620.00;;;;5068539;28;20249;-67
2022/06/24 01:36:27;;;;;;;9.60;8.40;;;18.60;99.90;19.90;96616.00;;;;5068815;28;20242;-67
2022/06/24 01:39:17;;;;;;;9.90;8.97;;;18.60;99.90;19.90;96612.00;;;;5059824;28;20208;-67
2022/06/24 01:42:07;;;;;;;11.20;7.50;;;18.40;99.90;19.90;96607.00;;;;5056200;28;20211;-67
2022/06/24 01:44:56;;;;;;;10.20;9.10;;;18.40;99.90;20.00;96614.00;;;;5070139;28;20366;-67
2022/06/24 01:47:45;;;;;;;10.90;7.87;;;18.50;99.90;20.00;96597.00;;;;5068568;28;20274;-67
2022/06/24 01:50:34;;;;;;;9.30;8.40;;;18.50;99.90;20.00;96597.00;;;;5067574;28;20203;-67
2022/06/24 01:53:23;;;;;;;9.20;8.40;;;18.60;99.90;20.00;96590.00;;;;5069272;28;20247;-67
2022/06/24 01:56:13;;;;;;;9.50;8.50;;;18.50;99.90;20.00;96587.00;;;;5068220;28;20232;-67
2022/06/24 01:59:03;;;;;;;9.13;8.30;;;18.40;99.90;20.00;96587.00;;;;5068742;28;20204;-67
2022/06/24 02:01:51;;;;;;;13.03;8.73;;;18.50;99.90;19.90;96582.00;;;;5072235;28;20196;-67
2022/06/24 02:04:40;;;;;;;11.20;7.77;;;18.30;99.90;20.00;96587.00;;;;5072165;28;20238;-67
2022/06/24 02:07:29;;;;;;;14.43;8.17;;;18.20;99.90;20.00;96591.00;;;;5072235;28;20195;-67
2022/06/24 02:13:41;;;;;;;10.27;7.63;;;18.50;99.90;20.10;96584.00;;;;4978875;28;20207;-67
2022/06/24 02:16:29;;;;;;;10.90;7.53;;;18.50;99.90;20.00;96584.00;;;;4971294;28;20642;-67
2022/06/24 02:19:18;;;;;;;8.70;7.80;;;18.50;99.90;19.80;96583.00;;;;5052665;28;20204;-67
2022/06/24 02:22:08;;;;;;;11.37;10.00;;;18.30;99.90;19.50;96582.00;;;;5072700;28;20212;-67
2022/06/24 02:24:56;;;;;;;11.13;9.20;;;18.30;99.90;19.80;96588.00;;;;5071735;28;20229;-66
2022/06/24 02:27:46;;;;;;;11.83;7.57;;;18.30;99.90;19.90;96588.00;;;;5071841;28;20211;-67
2022/06/24 02:30:37;;;;;;;11.90;9.33;;;18.50;99.90;19.90;96585.00;;;;5072097;28;20219;-67
2022/06/24 02:33:26;;;;;;;12.27;8.80;;;18.30;99.90;19.90;96585.00;;;;5071698;28;20207;-67
2022/06/24 02:36:16;;;;;;;9.60;7.73;;;18.30;99.90;19.90;96588.00;;;;5072026;28;20235;-67
2022/06/24 02:39:05;;;;;;;8.97;8.00;;;18.30;99.90;19.90;96588.00;;;;5072315;28;20200;-66
2022/06/24 02:41:54;;;;;;;9.70;8.70;;;18.20;99.90;20.00;96585.00;;;;5072484;28;20589;-67
2022/06/24 02:44:43;;;;;;;9.67;7.73;;;18.40;99.90;19.90;96579.00;;;;5071396;28;20717;-67
2022/06/24 02:47:33;;;;;;;11.07;9.27;;;18.50;99.90;19.80;96583.00;;;;5071629;28;20878;-67
2022/06/24 02:50:22;;;;;;;11.37;7.63;;;18.20;99.90;19.90;96588.00;;;;5072357;28;20906;-67
2022/06/24 02:53:11;;;;;;;11.03;8.17;;;18.30;99.90;19.70;96590.00;;;;5070990;28;20204;-67
2022/06/24 02:56:02;;;;;;;8.80;8.00;;;18.40;99.90;19.90;96585.00;;;;5071766;28;20230;-67
2022/06/24 02:58:51;;;;;;;13.53;8.10;;;18.30;99.90;19.90;96593.00;;;;5071215;28;20203;-67
2022/06/24 03:01:40;;;;;;;9.23;8.33;;;18.20;99.90;20.00;96585.00;;;;5071105;28;20215;-67
2022/06/24 03:04:30;;;;;;;10.17;8.20;;;18.40;99.90;20.00;96588.00;;;;5070978;28;20252;-67
2022/06/24 03:07:19;;;;;;;10.57;7.63;;;18.50;99.90;20.00;96578.00;;;;5071228;28;20204;-67
2022/06/24 03:10:09;;;;;;;8.53;6.83;;;18.40;99.90;20.00;96568.00;;;;5070427;28;20196;-67
2022/06/24 03:12:58;;;;;;;8.20;7.43;;;18.30;99.90;20.00;96575.00;;;;5068795;28;20215;-67
2022/06/24 03:15:48;;;;;;;10.67;8.90;;;18.30;99.90;20.00;96565.00;;;;5071303;28;20235;-67
2022/06/24 03:18:37;;;;;;;10.73;8.17;;;18.40;99.90;19.70;96582.00;;;;5070459;28;20204;-68
2022/06/24 03:21:27;;;;;;;8.83;7.70;;;18.40;99.90;19.40;96584.00;;;;5060044;28;20245;-68
2022/06/24 03:24:16;;;;;;;12.10;7.90;;;18.20;99.90;19.70;96575.00;;;;5071281;28;20203;-67
2022/06/24 03:27:06;;;;;;;10.33;9.27;;;18.10;99.90;19.90;96578.00;;;;5070881;28;20207;-67
2022/06/24 03:29:54;;;;;;;10.80;7.33;;;18.20;99.90;20.00;96582.00;;;;5063284;28;20196;-68
2022/06/24 03:32:43;;;;;;;13.27;7.70;;;18.30;99.90;20.00;96581.00;;;;5071049;28;20685;-67
2022/06/24 03:35:32;;;;;;;7.90;7.20;;;18.20;99.90;20.00;96583.00;;;;5071001;28;20708;-67
2022/06/24 03:38:23;;;;;;;15.13;8.83;;;18.20;99.90;20.00;96587.00;;;;5070601;28;20207;-67
2022/06/24 03:41:11;;;;;;;9.50;7.63;;;18.40;99.90;19.70;96581.00;;;;5070272;28;20204;-67
2022/06/24 03:44:01;;;;;;;12.07;8.93;;;18.40;99.90;19.70;96590.00;;;;5070403;28;20231;-68
2022/06/24 03:46:50;;;;;;;9.40;8.60;;;18.20;99.90;19.80;96580.00;;;;5070149;28;20215;-67
2022/06/24 03:49:39;;;;;;;8.63;7.93;;;18.30;99.90;19.90;96597.00;;;;5071172;28;20211;-67
2022/06/24 03:52:27;;;;;;;7.93;7.10;;;18.40;99.90;19.90;96595.00;;;;5070554;28;20203;-66
2022/06/24 03:55:18;;;;;;;9.67;8.40;;;18.40;99.90;19.90;96593.00;;;;5059264;28;20223;-67
2022/06/24 03:58:07;;;;;;;15.90;7.33;;;18.50;99.90;20.00;96589.00;;;;5069642;28;20663;-67
2022/06/24 04:01:01;;;;;;;12.70;7.70;;;18.40;99.90;20.00;96591.00;;;;5070072;28;20208;-67
2022/06/24 04:03:50;;;;;;;8.53;7.47;;;18.40;99.90;19.90;96593.00;;;;5065633;28;20683;-67
2022/06/24 04:06:39;;;;;;;10.00;8.50;;;18.40;99.90;19.90;96591.00;;;;5062246;28;20203;-67
2022/06/24 04:09:28;;;;;;;7.40;6.70;;;18.50;99.90;20.10;96583.00;;;;5058903;28;20196;-67
2022/06/24 04:12:18;;;;;;;8.83;8.03;;;18.40;99.90;20.10;96581.00;;;;5069028;28;20200;-67
2022/06/24 04:15:18;;;;;;;8.37;7.23;;;18.50;99.90;20.00;96588.00;;;;5069547;28;20223;-67
2022/06/24 04:18:07;;;;;;;9.03;6.60;;;18.50;99.90;20.10;96586.00;;;;5070614;28;20196;-67
2022/06/24 04:20:56;;;;;;;7.87;5.90;;;18.50;99.90;20.10;96580.00;;;;5066780;28;20192;-67
2022/06/24 04:23:49;;;;;;;7.07;6.20;;;18.20;99.90;20.00;96576.00;;;;5067377;28;20196;-67
2022/06/24 04:26:37;;;;;;;7.33;5.87;;;18.60;99.90;19.70;96577.00;;;;5066555;28;20211;-67
2022/06/24 04:29:29;;;;;;;8.70;6.97;;;18.40;99.90;19.50;96579.00;;;;5067953;28;20203;-68
2022/06/24 04:32:18;;;;;;;7.57;6.23;;;18.20;99.90;19.80;96579.00;;;;5060913;28;20196;-68
2022/06/24 04:35:08;;;;;;;10.17;7.10;;;18.30;99.90;20.00;96581.00;;;;5069621;28;20220;-67
2022/06/24 04:37:57;;;;;;;7.63;6.90;;;18.40;99.90;20.10;96578.00;;;;5069250;28;20223;-67
2022/06/24 04:40:46;;;;;;;9.23;6.77;;;18.40;99.90;19.90;96584.00;;;;5069219;28;20204;-67
2022/06/24 04:43:34;;;;;;;8.27;7.57;;;18.30;99.90;19.60;96583.00;;;;5069954;28;20200;-67
2022/06/24 04:46:25;;;;;;;9.03;7.33;;;18.30;99.90;19.80;96591.00;;;;5069201;28;20713;-67
2022/06/24 04:49:13;;;;;;;8.37;7.40;;;18.40;99.90;20.00;96586.00;;;;5065184;28;20683;-67
2022/06/24 04:52:02;;;;;;;8.40;6.80;;;18.20;99.90;20.00;96580.00;;;;5064833;28;20197;-67
2022/06/24 04:54:51;;;;;;;13.37;6.83;;;18.30;99.90;20.10;96587.00;;;;5066185;28;20246;-67
2022/06/24 04:57:40;;;;;;;7.30;6.60;;;18.40;99.90;20.10;96585.00;;;;5067749;28;20220;-67
2022/06/24 05:00:28;;;;;;;10.10;8.10;;;18.30;99.90;20.00;96588.00;;;;5068595;28;20199;-67
2022/06/24 05:03:19;;;;;;;9.93;8.03;;;18.50;99.90;20.00;96588.00;;;;5056991;28;20214;-67
2022/06/24 05:06:07;;;;;;;9.27;7.83;;;18.40;99.90;20.00;96583.00;;;;5070007;28;20246;-67
2022/06/24 05:08:57;;;;;;;8.27;7.47;;;18.70;99.90;20.50;96581.00;;;;5059073;28;20707;-71
2022/06/24 05:11:48;;;;;;;10.23;8.27;;;18.60;99.90;20.80;96586.00;;;;5065347;28;20200;-71
2022/06/24 05:14:37;;;;;;;12.67;7.70;;;18.90;99.90;21.00;96584.00;;;;5058743;28;20604;-71
2022/06/24 05:17:29;;;;;;;11.03;7.50;;;18.90;99.90;21.10;96581.00;;;;5064362;28;20467;-71
2022/06/24 05:20:19;;;;;;;7.83;7.13;;;18.90;99.90;21.20;96578.00;;;;5066010;28;20262;-71
2022/06/24 05:23:08;;;;;;;9.57;6.80;;;19.30;99.90;21.40;96586.00;;;;5065203;28;20213;-72
2022/06/24 05:25:57;;;;;;;7.47;6.57;;;19.40;99.90;21.10;96583.00;;;;5064487;28;20220;-72
2022/06/24 05:28:46;;;;;;;8.07;7.27;;;19.40;99.90;21.10;96581.00;;;;5067526;28;20210;-72
2022/06/24 05:31:35;;;;;;;8.97;6.90;;;19.60;99.90;21.30;96575.00;;;;5068406;28;20200;-73
2022/06/24 05:34:24;;;;;;;8.47;6.43;;;19.60;99.90;21.50;96587.00;;;;5065328;28;20216;-73
2022/06/24 05:37:14;;;;;;;8.73;6.63;;;19.60;99.90;21.80;96584.00;;;;5058720;28;20235;-72
2022/06/24 05:40:03;;;;;;;6.80;5.80;;;19.70;99.90;22.00;96579.00;;;;5062175;28;20191;-70
2022/06/24 05:42:52;;;;;;;9.27;6.77;;;19.80;99.90;22.10;96577.00;;;;5056978;28;20219;-69
2022/06/24 05:45:40;;;;;;;8.53;7.07;;;20.00;99.90;22.30;96573.00;;;;5066192;28;20265;-70
2022/06/24 05:48:30;;;;;;;8.13;6.17;;;20.20;99.90;22.40;96572.00;;;;5060335;28;20211;-74
2022/06/24 05:51:18;;;;;;;7.10;6.40;;;20.30;99.90;22.60;96576.00;;;;5065551;28;20219;-72
2022/06/24 05:57:15;;;;;;;7.13;6.43;;;20.40;99.90;21.90;96570.00;;;;5066299;28;20227;-69
2022/06/24 06:00:06;;;;;;;8.67;7.47;;;20.40;99.90;22.30;96577.00;;;;5067850;28;20215;-69
2022/06/24 06:02:55;;;;;;;8.90;6.57;;;20.50;99.90;22.50;96576.00;;;;5069258;28;20200;-70
2022/06/24 06:05:43;;;;;;;8.17;6.87;;;20.60;99.90;22.20;96583.00;;;;5068825;28;20227;-70
2022/06/24 06:08:32;;;;;;;7.80;6.57;;;20.50;99.90;22.30;96576.00;;;;5067953;28;20200;-69
2022/06/24 06:11:24;;;;;;;9.80;6.73;;;20.60;99.90;22.30;96585.00;;;;5061455;28;20211;-69
2022/06/24 06:14:13;;;;;;;6.83;6.13;;;20.60;99.90;22.50;96581.00;;;;5069211;28;20212;-71
2022/06/24 06:17:02;;;;;;;7.07;6.37;;;20.80;99.90;22.50;96574.00;;;;5064619;28;20229;-69
2022/06/24 06:19:51;;;;;;;6.30;5.67;;;20.80;99.90;22.80;96577.00;;;;5064948;28;20569;-70
2022/06/24 06:22:39;;;;;;;15.43;7.17;;;20.70;99.90;23.00;96574.00;;;;5065235;28;21171;-70
2022/06/24 06:25:28;;;;;;;9.83;6.43;;;21.00;99.90;23.00;96571.00;;;;5066487;28;20219;-69
2022/06/24 06:28:18;;;;;;;8.13;7.30;;;21.00;99.90;23.30;96581.00;;;;5067087;28;20694;-69
2022/06/24 06:31:09;;;;;;;7.50;6.53;;;21.00;99.90;23.50;96580.00;;;;5066238;28;20199;-69
2022/06/24 06:33:58;;;;;;;9.27;6.53;;;21.30;99.90;23.60;96591.00;;;;5061217;28;20211;-69
2022/06/24 06:36:47;;;;;;;6.90;6.10;;;21.40;99.90;23.60;96593.00;;;;5064084;28;20203;-69
2022/06/24 06:39:37;;;;;;;7.70;7.00;;;21.50;99.90;23.60;96589.00;;;;5061701;28;20212;-69
2022/06/24 06:42:27;;;;;;;9.00;6.70;;;21.60;99.90;23.90;96580.00;;;;5064663;28;20235;-70
2022/06/24 06:45:18;;;;;;;6.60;5.97;;;21.70;99.90;24.10;96576.00;;;;5066285;28;20381;-70
2022/06/24 06:48:08;;;;;;;6.33;5.67;;;22.00;99.90;24.50;96578.00;;;;5064929;28;20208;-70
2022/06/24 06:50:59;;;;;;;8.87;5.50;;;21.90;99.90;24.70;96581.00;;;;5058683;28;20216;-69
2022/06/24 06:53:48;;;;;;;7.60;6.13;;;22.20;99.90;24.80;96584.00;;;;5061177;28;20192;-69
2022/06/24 06:56:36;;;;;;;6.10;5.50;;;22.00;99.90;25.10;96575.00;;;;5066305;28;20683;-69
2022/06/24 06:59:25;;;;;;;6.87;4.73;;;22.70;99.90;25.30;96576.00;;;;5064752;28;20690;-68
2022/06/24 07:02:15;;;;;;;16.00;6.03;;;22.90;99.90;25.40;96571.00;;;;5064041;28;20215;-70
2022/06/24 07:05:05;;;;;;;7.07;5.63;;;23.00;99.90;25.10;96587.00;;;;5068649;28;20228;-69
2022/06/24 07:07:54;;;;;;;7.13;5.77;;;23.20;99.90;25.10;96594.00;;;;5065529;28;20577;-69
2022/06/24 07:10:44;;;;;;;6.63;5.33;;;23.20;99.90;24.90;96592.00;;;;5064655;28;20598;-68
2022/06/24 07:13:33;;;;;;;8.53;5.80;;;23.00;99.90;24.90;96582.00;;;;5066234;28;20211;-68
2022/06/24 07:16:22;;;;;;;7.13;5.37;;;23.00;99.90;25.00;96574.00;;;;5064637;28;20636;-68
2022/06/24 07:19:13;;;;;;;5.13;4.30;;;22.90;99.90;25.00;96580.00;;;;5067349;28;20774;-68
2022/06/24 07:22:01;;;;;;;7.27;4.90;;;23.00;99.90;25.10;96576.00;;;;5067862;28;20223;-69
2022/06/24 07:24:50;;;;;;;5.77;4.67;;;23.00;99.90;24.70;96576.00;;;;5064778;28;20227;-70
2022/06/24 07:27:39;;;;;;;5.77;4.77;;;23.10;99.90;25.00;96580.00;;;;5066900;28;20212;-70
2022/06/24 07:30:28;;;;;;;7.67;4.47;;;23.20;99.90;25.40;96578.00;;;;5067639;28;20220;-70
2022/06/24 07:33:17;;;;;;;6.20;4.90;;;23.10;99.90;25.40;96583.00;;;;5068066;28;20216;-70
2022/06/24 07:36:07;;;;;;;9.77;5.47;;;23.20;99.90;25.30;96584.00;;;;5067285;28;20224;-70
2022/06/24 07:38:56;;;;;;;9.07;4.93;;;23.20;99.90;25.60;96575.00;;;;5067106;28;20228;-70
2022/06/24 07:41:45;;;;;;;6.23;5.00;;;23.30;99.90;25.80;96581.00;;;;5066917;28;20209;-70
2022/06/24 07:44:34;;;;;;;14.63;6.60;;;23.50;99.90;25.90;96578.00;;;;5059741;28;20604;-70
2022/06/24 07:47:23;;;;;;;6.90;5.50;;;23.50;99.90;25.70;96576.00;;;;5061500;28;20212;-70
2022/06/24 07:50:12;;;;;;;10.43;5.60;;;23.60;99.90;26.00;96577.00;;;;5063838;28;20697;-70
2022/06/24 07:53:02;;;;;;;7.27;5.50;;;23.70;99.90;25.90;96571.00;;;;5058598;28;20217;-70
2022/06/24 07:58:57;;;;;;;5.90;5.27;;;24.00;99.90;25.90;96561.00;;;;5064892;28;20231;-70
2022/06/24 08:01:46;;;;;;;10.00;5.60;;;24.00;99.90;26.10;96560.00;;;;5065335;28;20217;-70
2022/06/24 08:04:35;;;;;;;6.90;5.67;;;24.00;99.90;26.30;96564.00;;;;5066805;28;20226;-70
2022/06/24 08:07:24;;;;;;;5.77;5.27;;;24.00;99.90;26.30;96551.00;;;;5066702;28;20194;-70
2022/06/24 08:10:14;;;;;;;11.37;7.33;;;23.90;99.90;26.20;96560.00;;;;5066888;28;20214;-70
2022/06/24 08:13:03;;;;;;;7.27;5.87;;;24.10;99.90;26.30;96549.00;;;;5061345;28;20199;-71
2022/06/24 08:15:52;;;;;;;10.07;6.43;;;24.10;99.90;26.30;96548.00;;;;5063626;28;20227;-71
2022/06/24 08:18:40;;;;;;;8.67;5.57;;;24.20;99.90;26.50;96549.00;;;;5061646;28;20236;-71
2022/06/24 08:21:29;;;;;;;6.67;5.97;;;24.40;99.90;26.50;96543.00;;;;5062744;28;20219;-71
2022/06/24 08:24:18;;;;;;;6.93;5.07;;;24.40;99.90;26.10;96519.00;;;;5061082;28;20218;-71
2022/06/24 08:27:08;;;;;;;5.27;4.87;;;24.30;99.90;26.20;96522.00;;;;5061824;28;20201;-71
2022/06/24 08:29:57;;;;;;;5.80;5.27;;;24.40;99.90;25.30;96521.00;;;;5064418;28;20690;-71
2022/06/24 08:32:46;;;;;;;8.00;4.87;;;24.30;99.90;26.00;96514.00;;;;5062507;28;20200;-71
2022/06/24 08:35:35;;;;;;;6.00;5.40;;;24.10;99.90;26.10;96513.00;;;;5060042;28;20223;-72
2022/06/24 08:38:23;;;;;;;6.10;5.30;;;24.20;99.90;26.50;96516.00;;;;5061521;28;20709;-71
2022/06/24 08:41:12;;;;;;;6.40;5.37;;;24.30;99.90;25.60;96496.00;;;;5063983;28;20217;-71
2022/06/24 08:44:02;;;;;;;4.97;4.57;;;24.20;99.90;26.30;96501.00;;;;5063164;28;20200;-71
2022/06/24 08:46:52;;;;;;;4.63;4.23;;;24.30;99.90;26.80;96506.00;;;;5066139;28;20588;-69
2022/06/24 08:49:41;;;;;;;8.17;4.83;;;24.60;99.90;27.40;96502.00;;;;5065208;28;20212;-66
2022/06/24 08:52:29;;;;;;;6.93;4.63;;;24.80;99.90;26.30;96514.00;;;;5062095;28;20201;-72
2022/06/24 08:55:20;;;;;;;6.03;5.10;;;24.80;99.90;25.10;96511.00;;;;5059027;28;20218;-71
2022/06/24 08:58:10;;;;;;;7.40;4.87;;;24.60;99.90;26.20;96514.00;;;;5063165;28;20207;-71
2022/06/24 09:01:00;;;;;;;8.27;4.90;;;24.50;99.90;27.30;96501.00;;;;5061197;28;20213;-71
2022/06/24 09:03:49;;;;;;;6.47;4.80;;;24.70;99.90;27.80;96518.00;;;;5065967;28;20207;-70
2022/06/24 09:06:42;;;;;;;4.97;4.57;;;25.10;99.90;27.20;96508.00;;;;5066031;28;20197;-72
2022/06/24 09:09:31;;;;;;;4.53;4.13;;;25.20;99.90;27.20;96524.00;;;;5066960;28;20212;-68
2022/06/24 09:12:20;;;;;;;4.83;3.90;;;25.10;99.90;27.30;96515.00;;;;5066083;28;20707;-68
2022/06/24 09:15:11;;;;;;;4.83;4.43;;;25.20;99.90;27.50;96517.00;;;;5062905;28;20213;-69
2022/06/24 09:18:01;;;;;;;6.47;4.90;;;25.20;99.90;27.90;96514.00;;;;5064145;28;20272;-69
2022/06/24 09:20:57;;;;;;;6.30;4.47;;;25.30;99.90;27.70;96535.00;;;;5064431;28;20604;-69
2022/06/24 09:23:55;;;;;;;5.17;4.73;;;25.50;99.90;27.50;96540.00;;;;5063604;28;20594;-70
2022/06/24 09:26:45;;;;;;;5.47;4.73;;;25.50;99.90;27.10;96536.00;;;;5061160;28;20197;-70
2022/06/24 09:29:33;;;;;;;7.93;4.77;;;25.40;99.90;26.10;96538.00;;;;5063680;28;20201;-72
2022/06/24 09:32:22;;;;;;;6.67;5.13;;;25.10;99.90;26.20;96534.00;;;;5063092;28;20205;-72
2022/06/24 09:35:12;;;;;;;11.47;4.90;;;24.90;99.90;25.90;96543.00;;;;5065463;28;20233;-71
2022/06/24 09:38:01;;;;;;;5.57;5.07;;;24.70;99.90;26.40;96531.00;;;;5060724;28;21029;-71
2022/06/24 09:41:00;;;;;;;5.27;4.77;;;24.40;99.90;26.30;96530.00;;;;5062522;28;20204;-72
2022/06/24 09:43:49;;;;;;;5.30;4.80;;;24.50;99.90;26.30;96525.00;;;;5063731;28;20203;-71
2022/06/24 09:46:37;;;;;;;7.67;5.20;;;24.40;99.90;26.30;96526.00;;;;5063310;28;20217;-72
2022/06/24 09:49:26;;;;;;;5.80;4.57;;;24.40;99.90;26.30;96521.00;;;;5061586;28;20218;-71
2022/06/24 09:52:17;;;;;;;5.00;4.57;;;24.40;99.90;26.30;96528.00;;;;5063530;28;20203;-72
2022/06/24 09:55:07;;;;;;;8.07;4.90;;;24.40;99.90;26.60;96522.00;;;;5064029;28;20224;-71
2022/06/24 09:57:56;;;;;;;5.60;4.60;;;24.40;99.90;26.70;96520.00;;;;5061417;28;20199;-71
2022/06/24 10:00:46;;;;;;;5.50;4.63;;;24.60;99.90;26.80;96529.00;;;;5065144;28;20230;-71
2022/06/24 10:03:37;;;;;;;6.27;5.23;;;24.70;99.90;27.00;96520.00;;;;5064773;28;20205;-71
2022/06/24 10:06:28;;;;;;;5.03;4.57;;;24.70;99.90;26.80;96515.00;;;;5064189;28;20198;-72
2022/06/24 10:09:25;;;;;;;5.03;4.43;;;24.80;99.90;27.20;96497.00;;;;5063256;28;20558;-71
2022/06/24 10:12:15;;;;;;;5.27;4.80;;;24.90;99.90;27.40;96457.00;;;;5059199;28;20205;-73
2022/06/24 10:15:04;;;;;;;5.97;5.37;;;25.20;99.90;27.20;96472.00;;;;5065114;28;20216;-72
2022/06/24 10:17:53;;;;;;;7.63;4.67;;;25.60;99.90;28.70;96448.00;;;;5061581;28;20246;-72
2022/06/24 10:20:44;;;;;;;6.17;5.57;;;26.00;99.90;29.90;96469.00;;;;5058224;28;20222;-72
2022/06/24 10:23:41;;;;;;;5.97;5.00;;;26.60;99.90;30.00;96477.00;;;;5064470;28;20217;-71
2022/06/24 10:26:34;;;;;;;5.80;4.70;;;27.00;99.90;29.90;96471.00;;;;5065198;28;20203;-74
2022/06/24 10:29:33;;;;;;;5.40;4.07;;;27.20;99.90;29.60;96485.00;;;;5064294;28;20264;-74
2022/06/24 10:32:21;;;;;;;5.77;4.70;;;27.40;99.90;29.60;96463.00;;;;5068234;28;20207;-74
2022/06/24 10:35:11;;;;;;;5.90;4.73;;;27.40;99.90;28.80;96475.00;;;;5062852;28;20231;-71
2022/06/24 10:38:00;;;;;;;6.93;5.03;;;27.40;99.90;29.00;96478.00;;;;5059394;28;20308;-72
2022/06/24 10:40:49;;;;;;;5.23;4.33;;;27.30;99.90;29.30;96480.00;;;;5066391;28;20237;-74
2022/06/24 10:43:43;;;;;;;6.53;4.60;;;27.30;99.90;29.60;96476.00;;;;5060688;28;20205;-74
2022/06/24 10:46:31;;;;;;;5.40;4.90;;;27.20;99.90;29.50;96489.00;;;;5067435;28;20243;-74
2022/06/24 10:49:20;;;;;;;5.00;4.57;;;27.20;99.90;28.90;96493.00;;;;5069369;28;20222;-67
2022/06/24 10:52:31;;;;;;;7.20;5.07;;;27.20;99.90;28.60;96500.00;;;;5068684;28;20214;-71
2022/06/24 10:55:39;;;;;;;4.63;4.13;;;26.90;99.90;28.00;96498.00;;;;5069139;28;20225;-69
2022/06/24 10:58:28;;;;;;;6.23;5.37;;;26.70;99.90;27.80;96497.00;;;;5068702;28;20600;-71
2022/06/24 11:01:18;;;;;;;9.13;4.70;;;26.40;99.90;27.80;96490.00;;;;5069385;28;20207;-71
2022/06/24 11:04:09;;;;;;;5.27;4.67;;;26.20;99.90;27.80;96471.00;;;;5063510;28;20218;-69
2022/06/24 11:07:11;;;;;;;6.83;5.13;;;26.10;99.90;28.90;96408.00;;;;5063864;28;20225;-70
2022/06/24 11:10:00;;;;;;;5.80;5.20;;;26.10;99.90;31.00;96449.00;;;;5065920;28;20210;-70
2022/06/24 11:12:51;;;;;;;8.03;5.37;;;27.00;99.90;29.70;96475.00;;;;5066381;28;20205;-72
2022/06/24 11:15:44;;;;;;;5.30;4.40;;;27.50;99.90;29.60;96470.00;;;;5061605;28;20229;-72
2022/06/24 11:18:35;;;;;;;7.57;4.30;;;27.40;99.90;29.10;96464.00;;;;5065070;28;20210;-72
2022/06/24 11:21:24;;;;;;;7.50;5.50;;;27.30;99.90;28.90;96438.00;;;;5062122;28;20228;-73
2022/06/24 11:24:14;;;;;;;7.33;5.47;;;27.40;99.90;29.00;96462.00;;;;5069186;28;20212;-73
2022/06/24 11:27:08;;;;;;;7.60;5.17;;;27.20;99.90;28.60;96460.00;;;;5060541;28;20205;-72
2022/06/24 11:30:00;;;;;;;6.70;5.80;;;27.00;99.90;28.40;96448.00;;;;5065060;28;20205;-73
2022/06/24 11:32:53;;;;;;;6.40;4.57;;;26.80;99.90;27.80;96441.00;;;;5064919;28;20201;-71
2022/06/24 11:35:43;;;;;;;5.37;4.80;;;26.70;99.90;30.20;96393.00;;;;5067975;28;20216;-72
2022/06/24 11:38:36;;;;;;;7.37;5.43;;;27.10;99.90;30.50;96445.00;;;;5066733;28;20205;-69
2022/06/24 11:41:27;;;;;;;5.83;4.30;;;27.40;99.90;30.20;96441.00;;;;5065484;28;20235;-68
2022/06/24 11:44:39;;;;;;;5.77;4.77;;;27.60;99.90;30.40;96404.00;;;;5065171;28;20650;-68
2022/06/24 11:47:32;;;;;;;7.10;5.00;;;27.90;99.90;30.30;96422.00;;;;5065211;28;20206;-74
2022/06/24 11:50:21;;;;;;;5.23;4.83;;;28.30;99.90;31.00;96421.00;;;;5066569;28;20570;-73
2022/06/24 11:53:11;;;;;;;5.17;4.70;;;28.50;99.90;30.80;96439.00;;;;5062906;28;20555;-73
2022/06/24 11:56:04;;;;;;;4.90;4.50;;;28.50;99.90;30.60;96398.00;;;;5066425;28;20231;-73
2022/06/24 11:58:53;;;;;;;4.38;3.97;;;28.50;99.90;31.70;96375.00;;;;5064846;28;20211;-74
2022/06/24 12:01:43;;;;;;;6.50;5.00;;;29.00;99.90;31.70;96412.00;;;;5065504;28;20226;-72
2022/06/24 12:04:32;;;;;;;5.85;5.22;;;29.20;99.90;31.90;96418.00;;;;5068806;28;20616;-71
2022/06/24 12:07:22;;;;;;;6.95;4.93;;;29.30;99.90;30.50;96434.00;;;;5063266;28;20215;-72
2022/06/24 12:10:13;;;;;;;8.85;5.00;;;29.20;99.90;30.00;96392.00;;;;5062820;28;20214;-73
2022/06/24 12:13:06;;;;;;;5.18;4.13;;;29.10;99.90;28.90;96434.00;;;;5062406;28;20207;-72
2022/06/24 12:15:55;;;;;;;6.40;4.45;;;28.60;99.90;27.60;96448.00;;;;5064191;28;20729;-71
2022/06/24 12:18:44;;;;;;;9.20;5.70;;;27.80;99.90;27.40;96448.00;;;;5063870;28;20489;-72
2022/06/24 12:21:33;;;;;;;6.23;4.87;;;27.20;99.90;27.00;96439.00;;;;5064148;28;20253;-72
2022/06/24 12:24:23;;;;;;;5.73;4.50;;;26.60;99.90;27.20;96443.00;;;;5065939;28;20224;-70
2022/06/24 12:27:13;;;;;;;12.00;5.00;;;26.20;99.90;27.70;96438.00;;;;5066436;28;20218;-69
2022/06/24 12:30:02;;;;;;;7.27;5.03;;;26.10;99.90;27.80;96428.00;;;;5066903;28;20215;-72
2022/06/24 12:32:55;;;;;;;8.67;4.93;;;26.00;99.90;28.00;96436.00;;;;5067797;28;20210;-72
2022/06/24 12:35:45;;;;;;;5.73;4.90;;;25.90;99.90;26.90;96423.00;;;;5061791;28;20234;-72
2022/06/24 12:38:41;;;;;;;6.23;5.07;;;25.90;99.90;26.90;96410.00;;;;5060542;28;20211;-70
2022/06/24 12:41:30;;;;;;;4.97;4.50;;;25.80;99.90;27.10;96413.00;;;;5063682;28;20225;-68
2022/06/24 12:44:20;;;;;;;7.57;5.57;;;25.70;99.90;27.00;96411.00;;;;5065736;28;20235;-72